Arequipa, Peru
Current Conditions -  °F | °C
As of 8:00 AM on Saturday 22 Nov 2014 (Local Time) from SPQU Reporting Station
Clear Clear  
Wind Chill: 64°   Ceiling: Unl
Heat Index: 64°   Visibility: 6mi
Dew Point: 14°   Wind: 2mph
Humidity: 14%   Direction: NA
Pressure: 30.33"   Gusts: NA
Location:  16.39°S, 71.53°W
Report Text: SPQU 221300Z VRB02KT CAVOK 18/M10 Q1027 NOSIGRMK PP000
Loading
Personal Weather Stations






























Interactive Weather Map New forecast layout! Learn more

10-Day Weather Forecast

Advertisements
Track Severe Weather on mobile